sensor_id;sensor_type;location;lat;lon;timestamp;temperature;humidity
47618;DHT22;33336;36.728;-4.414;2024-03-23T00:56:31;22.00;97.60
47618;DHT22;33336;36.728;-4.414;2024-03-23T01:01:34;22.00;97.90
47618;DHT22;33336;36.728;-4.414;2024-03-23T01:06:37;22.00;97.50
47618;DHT22;33336;36.728;-4.414;2024-03-23T01:11:42;22.00;97.70
47618;DHT22;33336;36.728;-4.414;2024-03-23T01:16:44;22.00;97.80
47618;DHT22;33336;36.728;-4.414;2024-03-23T01:21:48;22.00;97.60
47618;DHT22;33336;36.728;-4.414;2024-03-23T01:26:52;22.00;97.90
47618;DHT22;33336;36.728;-4.414;2024-03-23T01:31:56;22.00;97.90
47618;DHT22;33336;36.728;-4.414;2024-03-23T01:36:59;22.00;98.00
47618;DHT22;33336;36.728;-4.414;2024-03-23T01:42:05;22.00;98.10
47618;DHT22;33336;36.728;-4.414;2024-03-23T01:47:08;22.00;98.00
47618;DHT22;33336;36.728;-4.414;2024-03-23T01:52:11;21.90;97.90
47618;DHT22;33336;36.728;-4.414;2024-03-23T01:57:16;21.90;98.00
47618;DHT22;33336;36.728;-4.414;2024-03-23T02:02:19;21.90;98.10
47618;DHT22;33336;36.728;-4.414;2024-03-23T02:07:23;21.90;98.20
47618;DHT22;33336;36.728;-4.414;2024-03-23T02:12:29;22.00;97.90
47618;DHT22;33336;36.728;-4.414;2024-03-23T02:17:34;22.00;97.90
47618;DHT22;33336;36.728;-4.414;2024-03-23T02:22:39;22.00;97.90
47618;DHT22;33336;36.728;-4.414;2024-03-23T02:27:43;21.90;98.00
47618;DHT22;33336;36.728;-4.414;2024-03-23T02:32:46;22.00;98.00
47618;DHT22;33336;36.728;-4.414;2024-03-23T02:37:49;22.00;98.10
47618;DHT22;33336;36.728;-4.414;2024-03-23T02:42:54;21.90;98.10
47618;DHT22;33336;36.728;-4.414;2024-03-23T02:47:57;22.00;98.00
47618;DHT22;33336;36.728;-4.414;2024-03-23T02:53:00;21.90;98.00
47618;DHT22;33336;36.728;-4.414;2024-03-23T02:58:04;22.00;97.80
47618;DHT22;33336;36.728;-4.414;2024-03-23T03:03:08;22.00;97.80
47618;DHT22;33336;36.728;-4.414;2024-03-23T03:08:11;22.00;97.80
47618;DHT22;33336;36.728;-4.414;2024-03-23T03:13:15;21.90;97.90
47618;DHT22;33336;36.728;-4.414;2024-03-23T03:18:18;21.90;97.90
47618;DHT22;33336;36.728;-4.414;2024-03-23T03:23:22;21.90;97.90
47618;DHT22;33336;36.728;-4.414;2024-03-23T03:28:26;21.90;97.90
47618;DHT22;33336;36.728;-4.414;2024-03-23T03:33:32;21.90;98.00
47618;DHT22;33336;36.728;-4.414;2024-03-23T03:38:35;21.90;97.80
47618;DHT22;33336;36.728;-4.414;2024-03-23T03:43:41;21.90;97.90
47618;DHT22;33336;36.728;-4.414;2024-03-23T03:48:43;21.90;97.90
47618;DHT22;33336;36.728;-4.414;2024-03-23T03:53:49;21.90;97.90
47618;DHT22;33336;36.728;-4.414;2024-03-23T03:58:54;21.90;97.90
47618;DHT22;33336;36.728;-4.414;2024-03-23T04:03:57;21.90;97.90
47618;DHT22;33336;36.728;-4.414;2024-03-23T04:09:00;21.90;97.90
47618;DHT22;33336;36.728;-4.414;2024-03-23T04:14:05;21.90;97.90
47618;DHT22;33336;36.728;-4.414;2024-03-23T04:19:07;21.90;97.90
47618;DHT22;33336;36.728;-4.414;2024-03-23T04:24:11;21.90;97.90
47618;DHT22;33336;36.728;-4.414;2024-03-23T04:29:15;21.90;98.00
47618;DHT22;33336;36.728;-4.414;2024-03-23T04:34:19;21.90;97.90
47618;DHT22;33336;36.728;-4.414;2024-03-23T04:39:22;21.90;97.40
47618;DHT22;33336;36.728;-4.414;2024-03-23T04:44:26;21.90;97.70
47618;DHT22;33336;36.728;-4.414;2024-03-23T04:49:29;21.90;97.50
47618;DHT22;33336;36.728;-4.414;2024-03-23T04:54:33;21.90;97.70
47618;DHT22;33336;36.728;-4.414;2024-03-23T04:59:37;21.90;97.80
47618;DHT22;33336;36.728;-4.414;2024-03-23T05:04:40;21.90;97.60
47618;DHT22;33336;36.728;-4.414;2024-03-23T05:09:43;21.90;97.50
47618;DHT22;33336;36.728;-4.414;2024-03-23T05:14:48;21.90;97.80
47618;DHT22;33336;36.728;-4.414;2024-03-23T05:19:51;21.80;97.70
47618;DHT22;33336;36.728;-4.414;2024-03-23T05:24:54;21.80;97.80
47618;DHT22;33336;36.728;-4.414;2024-03-23T05:29:58;21.80;97.90
47618;DHT22;33336;36.728;-4.414;2024-03-23T05:35:02;21.80;98.00
47618;DHT22;33336;36.728;-4.414;2024-03-23T05:40:06;21.80;98.00
47618;DHT22;33336;36.728;-4.414;2024-03-23T05:45:11;21.80;98.00
47618;DHT22;33336;36.728;-4.414;2024-03-23T05:50:15;21.80;98.00
47618;DHT22;33336;36.728;-4.414;2024-03-23T05:55:19;21.80;97.90
47618;DHT22;33336;36.728;-4.414;2024-03-23T06:00:23;21.90;97.50
47618;DHT22;33336;36.728;-4.414;2024-03-23T06:05:28;21.90;97.80
47618;DHT22;33336;36.728;-4.414;2024-03-23T06:10:31;21.80;97.80
47618;DHT22;33336;36.728;-4.414;2024-03-23T06:15:35;21.80;97.80
47618;DHT22;33336;36.728;-4.414;2024-03-23T06:20:39;21.80;97.90
47618;DHT22;33336;36.728;-4.414;2024-03-23T06:25:42;21.80;97.60
47618;DHT22;33336;36.728;-4.414;2024-03-23T06:30:46;21.80;97.30
47618;DHT22;33336;36.728;-4.414;2024-03-23T06:35:50;21.90;96.90
47618;DHT22;33336;36.728;-4.414;2024-03-23T06:40:53;21.90;97.50
47618;DHT22;33336;36.728;-4.414;2024-03-23T06:45:59;21.90;97.30
47618;DHT22;33336;36.728;-4.414;2024-03-23T06:51:02;21.80;97.50
47618;DHT22;33336;36.728;-4.414;2024-03-23T06:56:05;21.80;97.60
47618;DHT22;33336;36.728;-4.414;2024-03-23T07:01:10;21.80;97.60
47618;DHT22;33336;36.728;-4.414;2024-03-23T07:06:13;21.80;97.30
47618;DHT22;33336;36.728;-4.414;2024-03-23T07:11:19;21.80;97.60
47618;DHT22;33336;36.728;-4.414;2024-03-23T07:16:27;21.70;97.50
47618;DHT22;33336;36.728;-4.414;2024-03-23T07:21:29;21.80;97.70
47618;DHT22;33336;36.728;-4.414;2024-03-23T07:26:32;21.80;97.60
47618;DHT22;33336;36.728;-4.414;2024-03-23T07:31:37;21.80;97.20
47618;DHT22;33336;36.728;-4.414;2024-03-23T07:36:40;21.80;97.50
47618;DHT22;33336;36.728;-4.414;2024-03-23T07:41:45;21.80;97.00
47618;DHT22;33336;36.728;-4.414;2024-03-23T07:46:50;21.80;97.30
47618;DHT22;33336;36.728;-4.414;2024-03-23T07:51:53;21.70;97.40
47618;DHT22;33336;36.728;-4.414;2024-03-23T07:56:56;21.70;97.40
47618;DHT22;33336;36.728;-4.414;2024-03-23T08:02:01;21.70;97.40
47618;DHT22;33336;36.728;-4.414;2024-03-23T08:12:07;21.70;97.30
47618;DHT22;33336;36.728;-4.414;2024-03-23T08:17:12;21.70;97.50
47618;DHT22;33336;36.728;-4.414;2024-03-23T08:22:15;21.70;97.40
47618;DHT22;33336;36.728;-4.414;2024-03-23T08:27:19;21.70;97.30
47618;DHT22;33336;36.728;-4.414;2024-03-23T08:32:24;21.70;97.40
47618;DHT22;33336;36.728;-4.414;2024-03-23T08:37:27;21.70;97.40
47618;DHT22;33336;36.728;-4.414;2024-03-23T08:42:30;21.70;97.40
47618;DHT22;33336;36.728;-4.414;2024-03-23T08:47:36;21.70;97.40
47618;DHT22;33336;36.728;-4.414;2024-03-23T08:52:39;21.70;97.50
47618;DHT22;33336;36.728;-4.414;2024-03-23T08:57:42;21.70;97.50
47618;DHT22;33336;36.728;-4.414;2024-03-23T09:02:49;21.70;97.60
47618;DHT22;33336;36.728;-4.414;2024-03-23T09:07:52;21.70;97.50
47618;DHT22;33336;36.728;-4.414;2024-03-23T09:12:55;21.70;97.60
47618;DHT22;33336;36.728;-4.414;2024-03-23T09:18:00;21.70;97.60
47618;DHT22;33336;36.728;-4.414;2024-03-23T09:23:04;21.70;97.60
47618;DHT22;33336;36.728;-4.414;2024-03-23T09:28:08;21.70;97.70
47618;DHT22;33336;36.728;-4.414;2024-03-23T09:33:13;21.70;97.70
47618;DHT22;33336;36.728;-4.414;2024-03-23T09:38:17;21.70;97.80
47618;DHT22;33336;36.728;-4.414;2024-03-23T09:43:20;21.70;97.80
47618;DHT22;33336;36.728;-4.414;2024-03-23T09:48:24;21.70;97.70
47618;DHT22;33336;36.728;-4.414;2024-03-23T09:53:27;21.70;97.70
47618;DHT22;33336;36.728;-4.414;2024-03-23T09:58:31;21.70;97.80
47618;DHT22;33336;36.728;-4.414;2024-03-23T10:03:43;21.70;97.80
47618;DHT22;33336;36.728;-4.414;2024-03-23T10:08:47;21.70;97.80
47618;DHT22;33336;36.728;-4.414;2024-03-23T10:13:50;21.70;97.80
47618;DHT22;33336;36.728;-4.414;2024-03-23T10:18:54;21.70;97.80
47618;DHT22;33336;36.728;-4.414;2024-03-23T10:24:08;21.70;97.70
47618;DHT22;33336;36.728;-4.414;2024-03-23T10:29:11;21.70;97.70
47618;DHT22;33336;36.728;-4.414;2024-03-23T10:34:15;21.70;97.80
47618;DHT22;33336;36.728;-4.414;2024-03-23T10:39:20;21.70;97.70
47618;DHT22;33336;36.728;-4.414;2024-03-23T10:44:23;21.70;97.80
47618;DHT22;33336;36.728;-4.414;2024-03-23T10:49:34;21.70;97.70
47618;DHT22;33336;36.728;-4.414;2024-03-23T10:54:37;21.70;97.70
47618;DHT22;33336;36.728;-4.414;2024-03-23T10:59:44;21.70;97.60
47618;DHT22;33336;36.728;-4.414;2024-03-23T11:04:49;21.70;97.60
47618;DHT22;33336;36.728;-4.414;2024-03-23T11:09:53;21.70;97.50
47618;DHT22;33336;36.728;-4.414;2024-03-23T11:14:58;21.70;97.50
47618;DHT22;33336;36.728;-4.414;2024-03-23T11:20:05;21.70;97.50
47618;DHT22;33336;36.728;-4.414;2024-03-23T11:25:28;21.70;97.50
47618;DHT22;33336;36.728;-4.414;2024-03-23T11:30:32;21.70;97.50
47618;DHT22;33336;36.728;-4.414;2024-03-23T11:35:37;21.70;97.40
47618;DHT22;33336;36.728;-4.414;2024-03-23T11:40:43;21.70;97.40
47618;DHT22;33336;36.728;-4.414;2024-03-23T11:45:48;21.80;97.70
47618;DHT22;33336;36.728;-4.414;2024-03-23T11:50:57;21.70;97.50
47618;DHT22;33336;36.728;-4.414;2024-03-23T11:56:00;21.80;97.80
47618;DHT22;33336;36.728;-4.414;2024-03-23T12:06:09;21.80;97.10
47618;DHT22;33336;36.728;-4.414;2024-03-23T12:11:13;21.80;97.30
47618;DHT22;33336;36.728;-4.414;2024-03-23T12:16:16;21.80;97.30
47618;DHT22;33336;36.728;-4.414;2024-03-23T12:21:22;21.80;97.30
47618;DHT22;33336;36.728;-4.414;2024-03-23T12:26:25;21.80;97.30
47618;DHT22;33336;36.728;-4.414;2024-03-23T12:31:29;21.80;97.30
47618;DHT22;33336;36.728;-4.414;2024-03-23T12:36:33;21.80;97.30
47618;DHT22;33336;36.728;-4.414;2024-03-23T12:41:36;21.80;97.30
47618;DHT22;33336;36.728;-4.414;2024-03-23T12:46:39;21.80;97.30
47618;DHT22;33336;36.728;-4.414;2024-03-23T12:51:52;21.80;97.30
47618;DHT22;33336;36.728;-4.414;2024-03-23T12:56:55;21.80;97.30
47618;DHT22;33336;36.728;-4.414;2024-03-23T13:01:59;21.80;97.30
47618;DHT22;33336;36.728;-4.414;2024-03-23T13:07:03;21.90;97.30
47618;DHT22;33336;36.728;-4.414;2024-03-23T13:12:07;21.80;97.30
47618;DHT22;33336;36.728;-4.414;2024-03-23T13:17:11;21.90;97.30
47618;DHT22;33336;36.728;-4.414;2024-03-23T13:22:17;21.90;97.30
47618;DHT22;33336;36.728;-4.414;2024-03-23T13:27:20;21.90;97.30
47618;DHT22;33336;36.728;-4.414;2024-03-23T13:32:24;21.90;97.30
47618;DHT22;33336;36.728;-4.414;2024-03-23T13:37:28;21.90;97.30
47618;DHT22;33336;36.728;-4.414;2024-03-23T13:42:32;21.90;97.30
47618;DHT22;33336;36.728;-4.414;2024-03-23T13:47:35;21.90;97.30
47618;DHT22;33336;36.728;-4.414;2024-03-23T13:52:39;21.90;97.30
47618;DHT22;33336;36.728;-4.414;2024-03-23T13:57:42;21.90;97.30
47618;DHT22;33336;36.728;-4.414;2024-03-23T14:02:46;21.90;97.30
47618;DHT22;33336;36.728;-4.414;2024-03-23T14:07:50;21.90;97.30
47618;DHT22;33336;36.728;-4.414;2024-03-23T14:12:54;21.90;97.20
47618;DHT22;33336;36.728;-4.414;2024-03-23T14:17:57;21.90;97.20
47618;DHT22;33336;36.728;-4.414;2024-03-23T14:23:01;21.90;97.20
47618;DHT22;33336;36.728;-4.414;2024-03-23T14:28:05;21.90;97.30
47618;DHT22;33336;36.728;-4.414;2024-03-23T14:33:11;21.90;97.20
47618;DHT22;33336;36.728;-4.414;2024-03-23T14:38:15;21.90;97.30
47618;DHT22;33336;36.728;-4.414;2024-03-23T14:43:19;21.90;97.20
47618;DHT22;33336;36.728;-4.414;2024-03-23T14:48:25;21.90;97.30
47618;DHT22;33336;36.728;-4.414;2024-03-23T14:53:29;21.90;97.20
47618;DHT22;33336;36.728;-4.414;2024-03-23T14:58:32;21.90;97.20
47618;DHT22;33336;36.728;-4.414;2024-03-23T15:03:37;21.90;97.10
47618;DHT22;33336;36.728;-4.414;2024-03-23T15:08:42;21.90;97.10
47618;DHT22;33336;36.728;-4.414;2024-03-23T15:13:45;21.90;97.10
47618;DHT22;33336;36.728;-4.414;2024-03-23T15:18:48;21.90;97.10
47618;DHT22;33336;36.728;-4.414;2024-03-23T15:23:52;21.90;97.10
47618;DHT22;33336;36.728;-4.414;2024-03-23T15:28:55;21.90;97.10
47618;DHT22;33336;36.728;-4.414;2024-03-23T15:34:22;22.00;97.10
47618;DHT22;33336;36.728;-4.414;2024-03-23T15:39:26;21.90;97.10
47618;DHT22;33336;36.728;-4.414;2024-03-23T15:44:30;22.00;97.10
47618;DHT22;33336;36.728;-4.414;2024-03-23T15:49:33;22.00;97.10
47618;DHT22;33336;36.728;-4.414;2024-03-23T15:54:37;22.00;97.00
47618;DHT22;33336;36.728;-4.414;2024-03-23T15:59:41;22.00;97.00
47618;DHT22;33336;36.728;-4.414;2024-03-23T16:04:44;22.00;96.90
47618;DHT22;33336;36.728;-4.414;2024-03-23T16:09:48;22.00;96.90
47618;DHT22;33336;36.728;-4.414;2024-03-23T16:14:52;22.00;96.90
47618;DHT22;33336;36.728;-4.414;2024-03-23T16:19:55;22.00;96.90
47618;DHT22;33336;36.728;-4.414;2024-03-23T16:24:59;22.00;96.90
47618;DHT22;33336;36.728;-4.414;2024-03-23T16:30:03;22.00;96.80
47618;DHT22;33336;36.728;-4.414;2024-03-23T16:35:07;22.00;96.80
47618;DHT22;33336;36.728;-4.414;2024-03-23T16:40:13;22.00;96.80
47618;DHT22;33336;36.728;-4.414;2024-03-23T16:45:16;22.00;96.80
47618;DHT22;33336;36.728;-4.414;2024-03-23T16:50:19;22.00;96.90
47618;DHT22;33336;36.728;-4.414;2024-03-23T16:55:24;22.00;96.80
47618;DHT22;33336;36.728;-4.414;2024-03-23T17:00:27;22.00;96.80
47618;DHT22;33336;36.728;-4.414;2024-03-23T17:05:36;22.00;96.90
47618;DHT22;33336;36.728;-4.414;2024-03-23T17:10:41;22.00;96.90
47618;DHT22;33336;36.728;-4.414;2024-03-23T17:15:44;22.10;96.90
47618;DHT22;33336;36.728;-4.414;2024-03-23T17:20:47;22.10;96.90
47618;DHT22;33336;36.728;-4.414;2024-03-23T17:25:53;22.10;96.90
47618;DHT22;33336;36.728;-4.414;2024-03-23T17:30:56;22.10;96.90
47618;DHT22;33336;36.728;-4.414;2024-03-23T17:36:02;22.10;96.90
47618;DHT22;33336;36.728;-4.414;2024-03-23T17:41:06;22.10;97.00
47618;DHT22;33336;36.728;-4.414;2024-03-23T17:46:14;22.10;97.00
47618;DHT22;33336;36.728;-4.414;2024-03-23T17:51:17;22.10;97.00
47618;DHT22;33336;36.728;-4.414;2024-03-23T17:56:21;22.20;97.00
47618;DHT22;33336;36.728;-4.414;2024-03-23T18:01:24;22.10;97.00
47618;DHT22;33336;36.728;-4.414;2024-03-23T18:06:28;22.10;97.00
47618;DHT22;33336;36.728;-4.414;2024-03-23T18:11:32;22.10;97.00
47618;DHT22;33336;36.728;-4.414;2024-03-23T18:16:36;22.20;97.00
47618;DHT22;33336;36.728;-4.414;2024-03-23T18:21:40;22.10;97.00
47618;DHT22;33336;36.728;-4.414;2024-03-23T18:26:44;22.20;97.00
47618;DHT22;33336;36.728;-4.414;2024-03-23T18:31:48;22.10;97.00
47618;DHT22;33336;36.728;-4.414;2024-03-23T18:36:51;22.20;97.10
47618;DHT22;33336;36.728;-4.414;2024-03-23T18:41:56;22.20;97.10
47618;DHT22;33336;36.728;-4.414;2024-03-23T18:46:59;22.10;97.10
47618;DHT22;33336;36.728;-4.414;2024-03-23T18:52:03;22.20;97.10
47618;DHT22;33336;36.728;-4.414;2024-03-23T18:57:13;22.20;97.10
47618;DHT22;33336;36.728;-4.414;2024-03-23T19:02:18;22.20;97.10
47618;DHT22;33336;36.728;-4.414;2024-03-23T19:07:21;22.20;97.10
47618;DHT22;33336;36.728;-4.414;2024-03-23T19:12:25;22.20;97.10
47618;DHT22;33336;36.728;-4.414;2024-03-23T19:17:28;22.20;97.10
47618;DHT22;33336;36.728;-4.414;2024-03-23T19:22:32;22.20;97.10
47618;DHT22;33336;36.728;-4.414;2024-03-23T19:27:36;22.20;97.20
47618;DHT22;33336;36.728;-4.414;2024-03-23T19:32:40;22.20;96.80
47618;DHT22;33336;36.728;-4.414;2024-03-23T19:37:43;22.20;96.90
47618;DHT22;33336;36.728;-4.414;2024-03-23T19:42:48;22.20;97.00
47618;DHT22;33336;36.728;-4.414;2024-03-23T19:47:51;22.20;97.00
47618;DHT22;33336;36.728;-4.414;2024-03-23T19:52:54;22.20;96.00
47618;DHT22;33336;36.728;-4.414;2024-03-23T19:57:58;22.30;96.60
47618;DHT22;33336;36.728;-4.414;2024-03-23T20:03:02;22.20;96.80
47618;DHT22;33336;36.728;-4.414;2024-03-23T20:08:07;22.30;96.60
47618;DHT22;33336;36.728;-4.414;2024-03-23T20:13:12;22.20;96.80
47618;DHT22;33336;36.728;-4.414;2024-03-23T20:18:15;22.20;96.30
47618;DHT22;33336;36.728;-4.414;2024-03-23T20:23:18;22.20;95.80
47618;DHT22;33336;36.728;-4.414;2024-03-23T20:28:23;22.20;96.40
47618;DHT22;33336;36.728;-4.414;2024-03-23T20:33:27;22.30;96.30
47618;DHT22;33336;36.728;-4.414;2024-03-23T20:38:30;22.30;96.00
47618;DHT22;33336;36.728;-4.414;2024-03-23T20:43:34;22.20;96.20
47618;DHT22;33336;36.728;-4.414;2024-03-23T20:48:39;22.30;95.60
47618;DHT22;33336;36.728;-4.414;2024-03-23T20:53:44;22.20;96.00
47618;DHT22;33336;36.728;-4.414;2024-03-23T20:58:48;22.20;96.40
47618;DHT22;33336;36.728;-4.414;2024-03-23T21:03:52;22.20;96.50
47618;DHT22;33336;36.728;-4.414;2024-03-23T21:08:56;22.30;96.10
47618;DHT22;33336;36.728;-4.414;2024-03-23T21:14:01;22.30;96.10
47618;DHT22;33336;36.728;-4.414;2024-03-23T21:19:04;22.30;96.50
47618;DHT22;33336;36.728;-4.414;2024-03-23T21:24:08;22.30;95.80
47618;DHT22;33336;36.728;-4.414;2024-03-23T21:29:12;22.30;96.10
47618;DHT22;33336;36.728;-4.414;2024-03-23T21:34:15;22.30;96.40
47618;DHT22;33336;36.728;-4.414;2024-03-23T21:39:18;22.30;96.10
47618;DHT22;33336;36.728;-4.414;2024-03-23T21:44:23;22.30;95.50
47618;DHT22;33336;36.728;-4.414;2024-03-23T21:49:26;22.30;95.50
47618;DHT22;33336;36.728;-4.414;2024-03-23T21:54:30;22.30;95.10
47618;DHT22;33336;36.728;-4.414;2024-03-23T21:59:34;22.30;95.30
47618;DHT22;33336;36.728;-4.414;2024-03-23T22:04:38;22.30;94.80
47618;DHT22;33336;36.728;-4.414;2024-03-23T22:09:41;22.30;95.40
47618;DHT22;33336;36.728;-4.414;2024-03-23T22:14:48;22.30;95.20
47618;DHT22;33336;36.728;-4.414;2024-03-23T22:19:51;22.20;95.70
47618;DHT22;33336;36.728;-4.414;2024-03-23T22:24:55;22.20;95.90
47618;DHT22;33336;36.728;-4.414;2024-03-23T22:29:59;22.20;95.90
47618;DHT22;33336;36.728;-4.414;2024-03-23T22:35:03;22.20;96.10
47618;DHT22;33336;36.728;-4.414;2024-03-23T22:40:07;22.20;96.20
47618;DHT22;33336;36.728;-4.414;2024-03-23T22:45:12;22.30;96.10
47618;DHT22;33336;36.728;-4.414;2024-03-23T22:50:15;22.30;95.90
47618;DHT22;33336;36.728;-4.414;2024-03-23T22:55:19;22.30;95.70
47618;DHT22;33336;36.728;-4.414;2024-03-23T23:00:23;22.30;96.00
47618;DHT22;33336;36.728;-4.414;2024-03-23T23:05:27;22.30;96.20
47618;DHT22;33336;36.728;-4.414;2024-03-23T23:10:30;22.30;96.20
47618;DHT22;33336;36.728;-4.414;2024-03-23T23:15:34;22.30;95.90
47618;DHT22;33336;36.728;-4.414;2024-03-23T23:20:37;22.40;95.40
47618;DHT22;33336;36.728;-4.414;2024-03-23T23:25:40;22.30;95.90
47618;DHT22;33336;36.728;-4.414;2024-03-23T23:30:54;22.30;95.80
47618;DHT22;33336;36.728;-4.414;2024-03-23T23:35:58;22.30;96.20
47618;DHT22;33336;36.728;-4.414;2024-03-23T23:41:01;22.30;96.10
47618;DHT22;33336;36.728;-4.414;2024-03-23T23:46:06;22.30;96.20
47618;DHT22;33336;36.728;-4.414;2024-03-23T23:51:12;22.30;96.20
47618;DHT22;33336;36.728;-4.414;2024-03-23T23:56:16;22.30;96.30
